Bookmark and Share
Track history (hours):
 

Sira

Last reported at 2014-Apr-16 08:31 UTC. Time now 2014-Apr-18 13:16 UTC.
Position N 01°07' E 103°45'.

Length 147 m; draft 7 m.

Type: Ship (hazmat cat B). MMSI: 538003434.

NotesDate/timePositionNaut miles runAvg speedWind from/ knotsBaromVisibWave heightAir tempDewpointWater temp
2014-Apr-16 08:31N 01°07' E 103°45'8 4.2
2014-Apr-16 06:33N 01°12' E 103°39'2 1.9
2014-Apr-16 05:33N 01°14' E 103°39'0 0.0
2014-Apr-16 04:30N 01°14' E 103°39'0 0.0
2014-Apr-16 03:30N 01°14' E 103°39'0 0.0
2014-Apr-16 02:32N 01°14' E 103°39'0 0.1
2014-Apr-16 01:27N 01°14' E 103°39'0 0.0
2014-Apr-16 00:26N 01°14' E 103°39'0 0.1
2014-Apr-15 23:33N 01°14' E 103°39'0 0.1
2014-Apr-15 22:32N 01°14' E 103°39'0 0.0
2014-Apr-15 21:33N 01°14' E 103°39'0 0.0
2014-Apr-15 20:29N 01°14' E 103°39'0 0.0
2014-Apr-15 19:32N 01°14' E 103°39'0 0.0
2014-Apr-15 18:33N 01°14' E 103°39'0 0.1
2014-Apr-15 17:32N 01°14' E 103°39'0 0.1
2014-Apr-15 16:32N 01°14' E 103°39'0 0.0
2014-Apr-15 15:32N 01°14' E 103°39'0 0.1
2014-Apr-15 14:32N 01°14' E 103°39'0 0.0
2014-Apr-15 12:33N 01°14' E 103°39'0 0.1
2014-Apr-15 11:33N 01°14' E 103°39'0 0.0
2014-Apr-15 10:33N 01°14' E 103°39'0 0.1
2014-Apr-15 09:33N 01°14' E 103°39'0 0.1
2014-Apr-15 08:33N 01°14' E 103°39'3 2.5
2014-Apr-15 07:34N 01°17' E 103°39'0 0.0
2014-Apr-15 06:31N 01°17' E 103°39'0 0.0
2014-Apr-15 05:31N 01°17' E 103°39'0 0.0
2014-Apr-15 03:34N 01°17' E 103°39'0 0.0
2014-Apr-15 02:34N 01°17' E 103°39'0 0.0
2014-Apr-15 01:34N 01°17' E 103°39'0 0.0
2014-Apr-14 23:34N 01°17' E 103°39'0 0.0
2014-Apr-14 21:31N 01°17' E 103°39'0 0.0
2014-Apr-14 20:31N 01°17' E 103°39'0 0.0
2014-Apr-14 19:34N 01°17' E 103°39'0 0.0
2014-Apr-14 18:31N 01°17' E 103°39'0 0.0
2014-Apr-14 17:34N 01°17' E 103°39'0 0.0
2014-Apr-14 15:31N 01°17' E 103°39'0 0.0
2014-Apr-14 13:33N 01°17' E 103°39'0 0.0
2014-Apr-14 11:33N 01°17' E 103°39'0 0.0
2014-Apr-14 10:33N 01°17' E 103°39'0 0.0
2014-Apr-14 09:30N 01°17' E 103°39'0 0.0
2014-Apr-13 22:27N 01°17' E 103°39'0 0.0
2014-Apr-13 20:12N 01°17' E 103°39'0 0.3
2014-Apr-13 19:32N 01°17' E 103°39'3 3.5
2014-Apr-13 18:33N 01°13' E 103°39'0 0.2
2014-Apr-13 17:29N 01°13' E 103°39'0 0.2
2014-Apr-13 16:27N 01°13' E 103°39'3 2.9
2014-Apr-13 15:28N 01°11' E 103°41'2 2.5
2014-Apr-13 14:31N 01°09' E 103°43'3 2.3
2014-Apr-13 13:26N 01°09' E 103°45'7 6.9
2014-Apr-13 12:29N 01°12' E 103°51'  

Dump ship's entire track history

sailing weather and tide predictions

Sira — V7QT5 — position and weather